Time;durP1;ratioP1;P1;durP2;ratioP2;P2;SDS_P1;SDS_P2;PMS_P1;PMS_P2;Temp;Humidity;BMP_temperature;BMP_pressure;BME280_temperature;BME280_humidity;BME280_pressure;Samples;Min_cycle;Max_cycle;Signal;HPM_P1;HPM_P2
2021/06/06 00:01:02;;;;;;;5.97;3.55;;;;;;;;;;5155568;27;20019;-65
2021/06/06 00:03:30;;;;;;;6.45;3.40;;;;;;;;;;5155666;27;20033;-66
2021/06/06 00:05:59;;;;;;;7.82;4.07;;;;;;;;;;5155545;27;20019;-65
2021/06/06 00:08:26;;;;;;;8.45;3.70;;;;;;;;;;5155408;27;20525;-66
2021/06/06 00:10:57;;;;;;;7.15;3.60;;;;;;;;;;5155572;27;20027;-65
2021/06/06 00:13:24;;;;;;;8.00;3.80;;;;;;;;;;5136887;27;20019;-68
2021/06/06 00:15:50;;;;;;;4.97;3.47;;;;;;;;;;5155394;27;20042;-65
2021/06/06 00:18:17;;;;;;;6.47;3.85;;;;;;;;;;5155318;27;20091;-68
2021/06/06 00:20:43;;;;;;;6.53;3.63;;;;;;;;;;5155053;27;20060;-66
2021/06/06 00:23:09;;;;;;;6.45;4.22;;;;;;;;;;5154932;27;20018;-66
2021/06/06 00:25:36;;;;;;;7.13;3.60;;;;;;;;;;5154670;27;20037;-66
2021/06/06 00:28:03;;;;;;;6.45;3.85;;;;;;;;;;5135873;27;20087;-67
2021/06/06 00:30:29;;;;;;;5.97;3.90;;;;;;;;;;5155769;27;20029;-67
2021/06/06 00:32:55;;;;;;;9.52;3.90;;;;;;;;;;5136734;27;20481;-66
2021/06/06 00:35:22;;;;;;;6.88;3.50;;;;;;;;;;5155243;27;20107;-65
2021/06/06 00:37:48;;;;;;;8.07;4.13;;;;;;;;;;5155061;27;20466;-66
2021/06/06 00:40:16;;;;;;;8.38;4.00;;;;;;;;;;5155200;27;20075;-69
2021/06/06 00:42:42;;;;;;;7.93;3.58;;;;;;;;;;5155634;27;20023;-68
2021/06/06 00:45:10;;;;;;;5.65;3.58;;;;;;;;;;5136764;27;20114;-67
2021/06/06 00:47:36;;;;;;;6.78;3.88;;;;;;;;;;5155601;27;20019;-67
2021/06/06 00:50:07;;;;;;;5.53;3.80;;;;;;;;;;5155389;27;20071;-68
2021/06/06 00:52:33;;;;;;;6.03;3.70;;;;;;;;;;5155400;27;20105;-67
2021/06/06 00:55:00;;;;;;;5.95;3.10;;;;;;;;;;5155415;27;20022;-65
2021/06/06 00:57:28;;;;;;;8.52;3.80;;;;;;;;;;5136562;27;20628;-65
2021/06/06 01:00:09;;;;;;;11.35;3.30;;;;;;;;;;5154975;27;20079;-70
2021/06/06 01:02:36;;;;;;;6.57;3.72;;;;;;;;;;5153780;27;20039;-65
2021/06/06 01:05:02;;;;;;;5.95;3.22;;;;;;;;;;5154485;27;20046;-66
2021/06/06 01:07:28;;;;;;;6.40;3.17;;;;;;;;;;5135049;27;20037;-66
2021/06/06 01:09:54;;;;;;;6.15;3.40;;;;;;;;;;5133404;27;20592;-65
2021/06/06 01:12:26;;;;;;;9.77;3.60;;;;;;;;;;5133767;27;20015;-67
2021/06/06 01:15:05;;;;;;;7.22;3.50;;;;;;;;;;5133812;27;20517;-66
2021/06/06 01:18:06;;;;;;;15.27;4.63;;;;;;;;;;5133525;27;20505;-67
2021/06/06 01:20:38;;;;;;;5.15;3.38;;;;;;;;;;5035659;28;20051;-65
2021/06/06 01:23:07;;;;;;;5.55;3.35;;;;;;;;;;5128920;27;20095;-66
2021/06/06 01:25:33;;;;;;;4.93;3.10;;;;;;;;;;5153274;27;20091;-66
2021/06/06 01:28:05;;;;;;;7.15;3.40;;;;;;;;;;5152976;27;20106;-66
2021/06/06 01:30:34;;;;;;;5.28;3.20;;;;;;;;;;5153604;27;20074;-66
2021/06/06 01:33:19;;;;;;;4.95;3.05;;;;;;;;;;5154050;27;20057;-66
2021/06/06 01:35:50;;;;;;;5.45;3.15;;;;;;;;;;5153680;27;20027;-66
2021/06/06 01:38:19;;;;;;;6.15;3.08;;;;;;;;;;5153639;27;20027;-66
2021/06/06 01:40:46;;;;;;;7.38;3.45;;;;;;;;;;5153607;27;20065;-65
2021/06/06 01:43:16;;;;;;;6.68;3.67;;;;;;;;;;5153790;27;20027;-66
2021/06/06 01:45:47;;;;;;;6.07;3.17;;;;;;;;;;5153822;27;20030;-65
2021/06/06 01:48:14;;;;;;;9.80;3.15;;;;;;;;;;5153441;27;20011;-66
2021/06/06 01:50:55;;;;;;;7.63;3.42;;;;;;;;;;5153034;27;20540;-65
2021/06/06 01:53:22;;;;;;;7.07;3.88;;;;;;;;;;5153643;27;20027;-66
2021/06/06 01:55:49;;;;;;;5.55;3.33;;;;;;;;;;5153714;27;20015;-66
2021/06/06 01:58:16;;;;;;;5.97;3.40;;;;;;;;;;5153478;27;20034;-65
2021/06/06 02:00:46;;;;;;;6.20;3.35;;;;;;;;;;5153670;27;20018;-66
2021/06/06 02:03:12;;;;;;;6.60;3.60;;;;;;;;;;5153415;27;20079;-68
2021/06/06 02:05:38;;;;;;;8.77;3.22;;;;;;;;;;5153543;27;20034;-68
2021/06/06 02:08:06;;;;;;;5.97;3.33;;;;;;;;;;5153429;27;20069;-66
2021/06/06 02:10:53;;;;;;;5.85;3.40;;;;;;;;;;5153372;27;20094;-66
2021/06/06 02:13:19;;;;;;;5.75;3.53;;;;;;;;;;5134557;27;20497;-66
2021/06/06 02:15:46;;;;;;;8.48;3.53;;;;;;;;;;5153335;27;20029;-66
2021/06/06 02:18:12;;;;;;;7.18;3.55;;;;;;;;;;5153222;27;20055;-66
2021/06/06 02:20:40;;;;;;;6.05;3.53;;;;;;;;;;5134715;27;20044;-66
2021/06/06 02:23:07;;;;;;;6.20;3.47;;;;;;;;;;5153082;27;20022;-66
2021/06/06 02:25:33;;;;;;;6.07;3.53;;;;;;;;;;5134521;27;20034;-66
2021/06/06 02:27:59;;;;;;;5.90;3.55;;;;;;;;;;5134597;27;20027;-65
2021/06/06 02:30:28;;;;;;;8.30;3.40;;;;;;;;;;5153193;27;20030;-66
2021/06/06 02:33:12;;;;;;;8.32;3.80;;;;;;;;;;5153225;27;20071;-65
2021/06/06 02:36:04;;;;;;;7.68;3.75;;;;;;;;;;5153079;27;20019;-65
2021/06/06 02:38:40;;;;;;;8.37;3.67;;;;;;;;;;5150076;27;20041;-66
2021/06/06 02:41:18;;;;;;;7.50;3.53;;;;;;;;;;5153300;27;20280;-65
2021/06/06 02:43:56;;;;;;;5.75;3.40;;;;;;;;;;5157431;27;20048;-66
2021/06/06 02:46:24;;;;;;;7.63;3.70;;;;;;;;;;5157369;27;20160;-66
2021/06/06 02:49:04;;;;;;;7.30;3.22;;;;;;;;;;5157172;27;20261;-68
2021/06/06 02:51:32;;;;;;;7.28;3.63;;;;;;;;;;5157137;27;20031;-66
2021/06/06 02:54:03;;;;;;;4.88;3.05;;;;;;;;;;5157114;27;20046;-65
2021/06/06 02:56:35;;;;;;;5.18;3.00;;;;;;;;;;5157037;27;20067;-66
2021/06/06 02:59:04;;;;;;;6.53;3.23;;;;;;;;;;5138482;27;20710;-66
2021/06/06 03:01:41;;;;;;;5.45;3.50;;;;;;;;;;5156883;27;20010;-65
2021/06/06 03:04:11;;;;;;;5.20;3.47;;;;;;;;;;5156702;27;20531;-65
2021/06/06 03:06:40;;;;;;;5.85;3.45;;;;;;;;;;5156854;27;20033;-66
2021/06/06 03:09:07;;;;;;;6.30;3.60;;;;;;;;;;5156830;27;20515;-66
2021/06/06 03:11:33;;;;;;;7.82;3.58;;;;;;;;;;5156696;27;20058;-65
2021/06/06 03:14:01;;;;;;;7.22;3.63;;;;;;;;;;5156877;27;20093;-65
2021/06/06 03:16:28;;;;;;;8.65;3.65;;;;;;;;;;5156728;27;20026;-65
2021/06/06 03:18:56;;;;;;;5.65;3.40;;;;;;;;;;5156701;27;20023;-66
2021/06/06 03:21:29;;;;;;;5.22;3.25;;;;;;;;;;5156663;27;20042;-68
2021/06/06 03:23:55;;;;;;;;;;;;;;;;;;5138366;27;20083;-67
2021/06/06 03:26:21;;;;;;;5.65;3.33;;;;;;;;;;5156509;27;19907;-66
2021/06/06 03:28:47;;;;;;;6.85;3.05;;;;;;;;;;5156565;27;20022;-65
2021/06/06 03:31:25;;;;;;;7.25;3.50;;;;;;;;;;5156540;27;20174;-65
2021/06/06 03:33:56;;;;;;;5.93;3.25;;;;;;;;;;5156643;27;20019;-66
2021/06/06 03:36:31;;;;;;;4.57;2.75;;;;;;;;;;5155315;27;20369;-66
2021/06/06 03:38:57;;;;;;;5.50;3.58;;;;;;;;;;5156325;27;20018;-66
2021/06/06 03:41:24;;;;;;;5.80;3.53;;;;;;;;;;5155344;27;20051;-66
2021/06/06 03:43:50;;;;;;;5.75;3.45;;;;;;;;;;5154673;27;20022;-65
2021/06/06 03:46:18;;;;;;;5.55;3.30;;;;;;;;;;5154861;27;20031;-67
2021/06/06 03:48:44;;;;;;;7.47;3.35;;;;;;;;;;5154971;27;20462;-66
2021/06/06 03:51:13;;;;;;;8.13;3.45;;;;;;;;;;5154917;27;20071;-65
2021/06/06 03:53:39;;;;;;;6.72;3.80;;;;;;;;;;5154379;27;20481;-66
2021/06/06 03:56:06;;;;;;;5.50;3.38;;;;;;;;;;5154721;27;20030;-65
2021/06/06 03:58:32;;;;;;;7.25;3.88;;;;;;;;;;5136157;27;20073;-66
2021/06/06 04:00:58;;;;;;;7.18;3.30;;;;;;;;;;5154637;27;20030;-66
2021/06/06 04:03:24;;;;;;;6.72;3.97;;;;;;;;;;5154432;27;20018;-67
2021/06/06 04:05:51;;;;;;;6.82;3.83;;;;;;;;;;5154400;27;20023;-65
2021/06/06 04:08:18;;;;;;;6.65;3.50;;;;;;;;;;5154488;27;20453;-66
2021/06/06 04:10:44;;;;;;;6.30;3.65;;;;;;;;;;5154379;27;20481;-67
2021/06/06 04:13:10;;;;;;;6.32;3.72;;;;;;;;;;5154266;27;20011;-66
2021/06/06 04:15:37;;;;;;;5.65;3.80;;;;;;;;;;5135776;27;20026;-67
2021/06/06 04:18:17;;;;;;;5.93;3.03;;;;;;;;;;5154257;27;20397;-67
2021/06/06 04:20:45;;;;;;;6.18;3.45;;;;;;;;;;5154289;27;20021;-66
2021/06/06 04:23:11;;;;;;;5.35;3.03;;;;;;;;;;5154116;27;20022;-65
2021/06/06 04:25:38;;;;;;;5.38;3.33;;;;;;;;;;5154178;27;20054;-66
2021/06/06 04:28:04;;;;;;;6.63;3.50;;;;;;;;;;5154213;27;20019;-68
2021/06/06 04:30:30;;;;;;;6.35;3.20;;;;;;;;;;5154255;27;20386;-65
2021/06/06 04:32:56;;;;;;;5.75;3.15;;;;;;;;;;5135818;27;20041;-65
2021/06/06 04:35:22;;;;;;;5.28;3.20;;;;;;;;;;5154157;27;20019;-66
2021/06/06 04:37:49;;;;;;;6.25;3.60;;;;;;;;;;5135246;27;20469;-66
2021/06/06 04:40:16;;;;;;;5.30;3.45;;;;;;;;;;5146036;27;157680;-67
2021/06/06 04:42:42;;;;;;;5.72;3.28;;;;;;;;;;5138926;27;20033;-66
2021/06/06 04:45:10;;;;;;;5.72;3.08;;;;;;;;;;5136149;27;20031;-68
2021/06/06 04:47:36;;;;;;;5.35;3.00;;;;;;;;;;5154804;27;20062;-66
2021/06/06 04:50:03;;;;;;;5.82;3.42;;;;;;;;;;5154992;27;20022;-65
2021/06/06 04:52:35;;;;;;;5.25;3.10;;;;;;;;;;5154880;27;20065;-65
2021/06/06 04:55:01;;;;;;;;;;;;;;;;;;5155286;27;20537;-65
2021/06/06 04:57:27;;;;;;;5.20;3.28;;;;;;;;;;5154696;27;19903;-66
2021/06/06 04:59:53;;;;;;;5.85;3.70;;;;;;;;;;5154616;27;20019;-65
2021/06/06 05:02:19;;;;;;;6.70;3.28;;;;;;;;;;5154589;27;20116;-66
2021/06/06 05:04:46;;;;;;;6.63;2.95;;;;;;;;;;5153668;27;20389;-66
2021/06/06 05:07:12;;;;;;;6.25;3.33;;;;;;;;;;5154645;27;20015;-67
2021/06/06 05:09:38;;;;;;;5.22;3.13;;;;;;;;;;5154671;27;20019;-66
2021/06/06 05:12:05;;;;;;;5.60;3.47;;;;;;;;;;5154426;27;20427;-65
2021/06/06 05:14:31;;;;;;;8.68;3.17;;;;;;;;;;5154414;27;20019;-65
2021/06/06 05:16:57;;;;;;;7.80;3.55;;;;;;;;;;5154257;27;20026;-66
2021/06/06 05:19:23;;;;;;;5.45;3.20;;;;;;;;;;5154114;27;20022;-66
2021/06/06 05:21:49;;;;;;;8.30;3.20;;;;;;;;;;5154169;27;20027;-66
2021/06/06 05:24:15;;;;;;;4.90;2.92;;;;;;;;;;5153997;27;20030;-67
2021/06/06 05:26:41;;;;;;;4.35;2.58;;;;;;;;;;5154181;27;20030;-66
2021/06/06 05:29:09;;;;;;;5.55;3.47;;;;;;;;;;5154030;27;20022;-65
2021/06/06 05:31:35;;;;;;;6.28;3.10;;;;;;;;;;5154064;27;20015;-65
2021/06/06 05:34:01;;;;;;;5.50;2.97;;;;;;;;;;5153872;27;20028;-65
2021/06/06 05:36:27;;;;;;;5.82;3.17;;;;;;;;;;5135047;27;20033;-66
2021/06/06 05:38:53;;;;;;;5.00;3.10;;;;;;;;;;5114847;27;20378;-65
2021/06/06 05:41:20;;;;;;;5.22;3.17;;;;;;;;;;5132956;27;20505;-66
2021/06/06 05:43:46;;;;;;;5.38;2.88;;;;;;;;;;5133150;27;20027;-65
2021/06/06 05:46:15;;;;;;;5.47;2.83;;;;;;;;;;5133189;27;20109;-66
2021/06/06 05:48:42;;;;;;;5.60;2.85;;;;;;;;;;5133070;27;20019;-65
2021/06/06 05:51:09;;;;;;;5.18;2.92;;;;;;;;;;5133120;27;20445;-66
2021/06/06 05:53:35;;;;;;;5.03;3.00;;;;;;;;;;5114500;27;20114;-66
2021/06/06 05:56:04;;;;;;;5.90;3.03;;;;;;;;;;5114649;27;20554;-65
2021/06/06 05:58:30;;;;;;;4.93;2.97;;;;;;;;;;5133008;27;20023;-66
2021/06/06 06:00:56;;;;;;;5.43;3.00;;;;;;;;;;5114464;27;20083;-66
2021/06/06 06:03:22;;;;;;;6.05;2.83;;;;;;;;;;5132554;27;20019;-68
2021/06/06 06:05:48;;;;;;;7.80;3.15;;;;;;;;;;5132744;27;20023;-66
2021/06/06 06:08:20;;;;;;;4.70;2.80;;;;;;;;;;5132816;27;20025;-66
2021/06/06 06:10:46;;;;;;;5.35;2.92;;;;;;;;;;5132815;27;20061;-65
2021/06/06 06:13:13;;;;;;;5.65;2.60;;;;;;;;;;5132636;27;20547;-65
2021/06/06 06:15:39;;;;;;;4.75;2.92;;;;;;;;;;5132547;27;20058;-66
2021/06/06 06:18:05;;;;;;;7.00;3.45;;;;;;;;;;5132484;27;20026;-66
2021/06/06 06:20:31;;;;;;;5.63;2.70;;;;;;;;;;5132389;27;20028;-66
2021/06/06 06:22:58;;;;;;;5.28;2.65;;;;;;;;;;5132618;27;20019;-66
2021/06/06 06:25:24;;;;;;;6.03;2.53;;;;;;;;;;5132482;27;20031;-66
2021/06/06 06:27:50;;;;;;;5.80;3.08;;;;;;;;;;5132514;28;20086;-66
2021/06/06 06:30:18;;;;;;;5.60;3.03;;;;;;;;;;5132438;28;20023;-66
2021/06/06 06:32:44;;;;;;;5.63;3.00;;;;;;;;;;5114000;28;20034;-66
2021/06/06 06:35:11;;;;;;;5.35;2.70;;;;;;;;;;5132585;28;20412;-65
2021/06/06 06:37:38;;;;;;;5.45;2.63;;;;;;;;;;5132382;28;20030;-66
2021/06/06 06:40:05;;;;;;;4.13;2.75;;;;;;;;;;5132315;28;20040;-66
2021/06/06 06:42:31;;;;;;;5.28;2.55;;;;;;;;;;5113839;28;20034;-66
2021/06/06 06:44:57;;;;;;;4.95;2.80;;;;;;;;;;5132261;28;20118;-65
2021/06/06 06:47:23;;;;;;;5.20;2.65;;;;;;;;;;5132399;28;20023;-66
2021/06/06 06:49:51;;;;;;;4.45;2.25;;;;;;;;;;5132527;28;20023;-66
2021/06/06 06:52:17;;;;;;;4.53;2.53;;;;;;;;;;5132198;28;20033;-66
2021/06/06 06:54:43;;;;;;;5.00;2.60;;;;;;;;;;5114439;28;20438;-66
2021/06/06 06:57:09;;;;;;;5.03;2.85;;;;;;;;;;5132121;28;20542;-66
2021/06/06 06:59:37;;;;;;;8.05;2.72;;;;;;;;;;5132210;28;20023;-66
2021/06/06 07:02:04;;;;;;;5.57;3.00;;;;;;;;;;5132117;28;20026;-67
2021/06/06 07:04:30;;;;;;;6.93;2.85;;;;;;;;;;5132157;28;20035;-66
2021/06/06 07:06:56;;;;;;;4.93;2.60;;;;;;;;;;5113571;28;20492;-66
2021/06/06 07:09:24;;;;;;;5.10;2.78;;;;;;;;;;5132044;28;20027;-65
2021/06/06 07:11:52;;;;;;;6.15;2.72;;;;;;;;;;5131998;28;20047;-66
2021/06/06 07:14:18;;;;;;;6.00;2.65;;;;;;;;;;5131735;28;20020;-66
2021/06/06 07:16:44;;;;;;;4.40;2.60;;;;;;;;;;5132113;28;20058;-66
2021/06/06 07:19:10;;;;;;;5.05;2.75;;;;;;;;;;5132014;28;20030;-66
2021/06/06 07:21:36;;;;;;;5.65;3.00;;;;;;;;;;5131800;27;20015;-67
2021/06/06 07:24:03;;;;;;;5.10;2.50;;;;;;;;;;5143974;27;20069;-66
2021/06/06 07:26:32;;;;;;;7.63;2.30;;;;;;;;;;5131920;27;20026;-65
2021/06/06 07:29:00;;;;;;;4.47;2.42;;;;;;;;;;5134841;27;20022;-66
2021/06/06 07:31:26;;;;;;;7.82;2.28;;;;;;;;;;5135814;27;20015;-67
2021/06/06 07:33:52;;;;;;;5.88;2.65;;;;;;;;;;5135622;27;20059;-65
2021/06/06 07:36:19;;;;;;;4.70;2.67;;;;;;;;;;5135676;27;20027;-65
2021/06/06 07:38:47;;;;;;;4.45;2.42;;;;;;;;;;5135408;27;20458;-66
2021/06/06 07:41:14;;;;;;;4.55;2.63;;;;;;;;;;5135030;27;20047;-66
2021/06/06 07:43:40;;;;;;;4.57;2.70;;;;;;;;;;5116606;27;20414;-66
2021/06/06 07:46:06;;;;;;;5.38;2.85;;;;;;;;;;5135279;27;20019;-66
2021/06/06 07:48:32;;;;;;;4.00;2.42;;;;;;;;;;5135055;27;20019;-65
2021/06/06 07:50:59;;;;;;;4.93;2.70;;;;;;;;;;5135014;27;20050;-66
2021/06/06 07:53:25;;;;;;;5.57;2.60;;;;;;;;;;5135361;27;20011;-66
2021/06/06 07:55:52;;;;;;;4.28;2.25;;;;;;;;;;5116696;27;20027;-66
2021/06/06 07:58:22;;;;;;;5.85;2.63;;;;;;;;;;5135057;27;20050;-66
2021/06/06 08:00:49;;;;;;;8.43;2.67;;;;;;;;;;5135093;27;20102;-67
2021/06/06 08:03:15;;;;;;;5.63;2.67;;;;;;;;;;5134899;27;20012;-68
2021/06/06 08:05:42;;;;;;;6.65;2.38;;;;;;;;;;5134929;27;20027;-66
2021/06/06 08:08:09;;;;;;;5.45;2.95;;;;;;;;;;5116210;27;20050;-66
2021/06/06 08:10:37;;;;;;;5.07;2.25;;;;;;;;;;5134695;27;20019;-65
2021/06/06 08:13:04;;;;;;;6.55;2.15;;;;;;;;;;5134887;27;20027;-66
2021/06/06 08:15:30;;;;;;;5.00;2.63;;;;;;;;;;5134744;27;20054;-66
2021/06/06 08:17:57;;;;;;;4.07;2.20;;;;;;;;;;5134229;27;20059;-65
2021/06/06 08:20:31;;;;;;;11.25;3.63;;;;;;;;;;5134683;27;20027;-65
2021/06/06 08:22:58;;;;;;;12.90;3.38;;;;;;;;;;5134622;27;20528;-64
2021/06/06 08:25:24;;;;;;;12.98;3.15;;;;;;;;;;5115743;27;20049;-63
2021/06/06 08:27:51;;;;;;;11.38;3.30;;;;;;;;;;5134362;27;20027;-64
2021/06/06 08:30:20;;;;;;;13.00;3.25;;;;;;;;;;5134575;27;20058;-64
2021/06/06 08:32:46;;;;;;;6.93;3.10;;;;;;;;;;5134549;27;20012;-63
2021/06/06 08:35:12;;;;;;;9.32;2.78;;;;;;;;;;5134365;27;20076;-63
2021/06/06 08:37:39;;;;;;;9.25;2.92;;;;;;;;;;5134059;27;20031;-63
2021/06/06 08:40:07;;;;;;;9.55;3.00;;;;;;;;;;5132688;27;20023;-63
2021/06/06 08:42:37;;;;;;;7.00;2.83;;;;;;;;;;5134064;27;20031;-64
2021/06/06 08:45:03;;;;;;;5.78;3.15;;;;;;;;;;5133875;27;20051;-64
2021/06/06 08:47:30;;;;;;;8.68;3.28;;;;;;;;;;5134135;27;20019;-63
2021/06/06 08:50:07;;;;;;;9.40;2.92;;;;;;;;;;5115593;27;20055;-64
2021/06/06 08:52:36;;;;;;;11.75;3.38;;;;;;;;;;5133928;27;20104;-63
2021/06/06 08:55:11;;;;;;;8.20;3.00;;;;;;;;;;5133845;27;20044;-64
2021/06/06 08:57:40;;;;;;;6.72;3.05;;;;;;;;;;5133892;27;20019;-63
2021/06/06 09:00:10;;;;;;;6.90;3.00;;;;;;;;;;5133949;27;20027;-64
2021/06/06 09:02:46;;;;;;;9.68;2.78;;;;;;;;;;5133801;27;20079;-63
2021/06/06 09:05:19;;;;;;;5.65;2.35;;;;;;;;;;5133634;27;20028;-63
2021/06/06 09:07:46;;;;;;;6.60;2.67;;;;;;;;;;5133594;27;20038;-64
2021/06/06 09:10:23;;;;;;;6.05;2.60;;;;;;;;;;5133724;27;20076;-64
2021/06/06 09:12:50;;;;;;;6.32;2.70;;;;;;;;;;5133586;27;20064;-63
2021/06/06 09:15:17;;;;;;;4.57;2.38;;;;;;;;;;5133536;27;20015;-64
2021/06/06 09:17:45;;;;;;;6.72;2.53;;;;;;;;;;5114720;27;20027;-65
2021/06/06 09:20:23;;;;;;;7.53;2.55;;;;;;;;;;5133358;27;20059;-64
2021/06/06 09:22:49;;;;;;;4.85;2.50;;;;;;;;;;5133276;27;20102;-63
2021/06/06 09:25:20;;;;;;;5.45;2.78;;;;;;;;;;5133252;27;20111;-63
2021/06/06 09:27:46;;;;;;;4.85;2.67;;;;;;;;;;5133186;27;20019;-63
2021/06/06 09:30:14;;;;;;;6.80;2.70;;;;;;;;;;5133109;27;20023;-63
2021/06/06 09:32:41;;;;;;;5.97;2.40;;;;;;;;;;5133182;27;20051;-63
2021/06/06 09:35:07;;;;;;;6.93;2.45;;;;;;;;;;5133200;27;20020;-64
2021/06/06 09:37:35;;;;;;;4.63;2.45;;;;;;;;;;5114485;27;20152;-64
2021/06/06 09:40:07;;;;;;;4.50;2.35;;;;;;;;;;5132663;27;20026;-64
2021/06/06 09:42:38;;;;;;;5.68;2.88;;;;;;;;;;5132909;27;20027;-64
2021/06/06 09:45:20;;;;;;;8.15;2.90;;;;;;;;;;5132781;27;20031;-64
2021/06/06 09:48:05;;;;;;;8.00;2.70;;;;;;;;;;5132592;27;20020;-63
2021/06/06 09:50:34;;;;;;;5.32;2.80;;;;;;;;;;5132288;27;20382;-64
2021/06/06 09:53:09;;;;;;;5.35;2.30;;;;;;;;;;5132811;27;20393;-64
2021/06/06 09:55:35;;;;;;;6.32;2.60;;;;;;;;;;5132791;27;20019;-64
2021/06/06 09:58:12;;;;;;;5.32;2.65;;;;;;;;;;5132749;27;20031;-64
2021/06/06 10:00:42;;;;;;;4.22;2.33;;;;;;;;;;5132872;27;20056;-63
2021/06/06 10:03:23;;;;;;;4.40;2.10;;;;;;;;;;5132586;27;20038;-63
2021/06/06 10:05:50;;;;;;;4.10;2.15;;;;;;;;;;5132562;27;20401;-63
2021/06/06 10:08:19;;;;;;;4.47;2.30;;;;;;;;;;5132446;27;20019;-63
2021/06/06 10:10:50;;;;;;;5.93;2.30;;;;;;;;;;5132463;27;20027;-64
2021/06/06 10:13:23;;;;;;;5.55;2.22;;;;;;;;;;5132535;27;20060;-63
2021/06/06 10:15:49;;;;;;;;;;;;;;;;;;5133049;27;20025;-63
2021/06/06 10:18:21;;;;;;;4.10;2.20;;;;;;;;;;5132124;27;19994;-63
2021/06/06 10:20:53;;;;;;;6.40;2.67;;;;;;;;;;5132320;27;20031;-63
2021/06/06 10:23:31;;;;;;;5.15;2.15;;;;;;;;;;5132481;27;20019;-64
2021/06/06 10:26:05;;;;;;;5.13;2.40;;;;;;;;;;5132369;27;20075;-63
2021/06/06 10:28:34;;;;;;;4.22;2.60;;;;;;;;;;5132043;27;20022;-63
2021/06/06 10:31:03;;;;;;;5.90;2.40;;;;;;;;;;5132227;28;20019;-63
2021/06/06 10:33:55;;;;;;;4.63;2.40;;;;;;;;;;5132592;28;20093;-63
2021/06/06 10:36:23;;;;;;;3.85;2.40;;;;;;;;;;5083165;28;20031;-64
2021/06/06 10:38:49;;;;;;;5.93;2.30;;;;;;;;;;5132236;28;20050;-63
2021/06/06 10:41:36;;;;;;;4.75;2.60;;;;;;;;;;5132154;28;20075;-63
2021/06/06 10:44:05;;;;;;;8.10;2.65;;;;;;;;;;5131808;28;20471;-63
2021/06/06 10:46:50;;;;;;;4.22;2.33;;;;;;;;;;5132068;28;20043;-63
2021/06/06 10:49:19;;;;;;;3.65;2.10;;;;;;;;;;5132135;28;20028;-63
2021/06/06 10:51:50;;;;;;;5.47;2.50;;;;;;;;;;5132179;28;20094;-64
2021/06/06 10:54:38;;;;;;;5.10;2.60;;;;;;;;;;5132096;28;20027;-64
2021/06/06 10:57:15;;;;;;;4.30;2.60;;;;;;;;;;5131859;28;20068;-64
2021/06/06 10:59:50;;;;;;;4.88;2.42;;;;;;;;;;5131809;28;20023;-63
2021/06/06 11:02:35;;;;;;;4.85;2.65;;;;;;;;;;5132566;27;20081;-63
2021/06/06 11:05:07;;;;;;;3.78;2.30;;;;;;;;;;5117531;27;20035;-63
2021/06/06 11:07:36;;;;;;;4.35;2.55;;;;;;;;;;5136036;27;20077;-64
2021/06/06 11:10:02;;;;;;;5.75;2.80;;;;;;;;;;5135939;27;20394;-63
2021/06/06 11:12:33;;;;;;;4.22;2.65;;;;;;;;;;5135899;27;20494;-64
2021/06/06 11:15:00;;;;;;;3.78;2.60;;;;;;;;;;5135771;27;20027;-65
2021/06/06 11:17:32;;;;;;;5.00;2.90;;;;;;;;;;5135535;27;20015;-63
2021/06/06 11:20:13;;;;;;;4.55;2.97;;;;;;;;;;5135755;27;20019;-64
2021/06/06 11:22:41;;;;;;;4.05;2.47;;;;;;;;;;5135709;27;20386;-63
2021/06/06 11:25:24;;;;;;;4.40;2.80;;;;;;;;;;5135644;27;20415;-63
2021/06/06 11:28:00;;;;;;;4.38;2.60;;;;;;;;;;5135575;27;20073;-63
2021/06/06 11:30:27;;;;;;;4.72;2.60;;;;;;;;;;5117158;27;20031;-63
2021/06/06 11:33:02;;;;;;;4.68;2.50;;;;;;;;;;5135667;27;20015;-64
2021/06/06 11:35:37;;;;;;;4.22;2.72;;;;;;;;;;5117026;27;20023;-63
2021/06/06 11:38:15;;;;;;;5.25;2.97;;;;;;;;;;5116896;27;20019;-63
2021/06/06 11:40:41;;;;;;;4.47;2.67;;;;;;;;;;5135131;27;20066;-64
2021/06/06 11:43:26;;;;;;;5.45;2.70;;;;;;;;;;5116846;27;20027;-63
2021/06/06 11:45:53;;;;;;;3.97;2.63;;;;;;;;;;5135317;27;20035;-63
2021/06/06 11:48:29;;;;;;;5.43;2.67;;;;;;;;;;5135657;27;20086;-65
2021/06/06 11:50:57;;;;;;;4.18;2.55;;;;;;;;;;5135156;27;20023;-63
2021/06/06 11:53:34;;;;;;;4.53;2.92;;;;;;;;;;5136031;27;20016;-63
2021/06/06 11:56:26;;;;;;;4.13;2.70;;;;;;;;;;5117071;27;20027;-63
2021/06/06 11:59:01;;;;;;;5.72;3.00;;;;;;;;;;5135090;27;20027;-63
2021/06/06 12:01:27;;;;;;;5.00;3.17;;;;;;;;;;5135053;27;20034;-63
2021/06/06 12:04:05;;;;;;;4.05;2.80;;;;;;;;;;5134791;27;20023;-63
2021/06/06 12:06:31;;;;;;;5.13;2.95;;;;;;;;;;5134799;27;20023;-63
2021/06/06 12:08:58;;;;;;;4.97;2.92;;;;;;;;;;5134586;27;20075;-63
2021/06/06 12:11:35;;;;;;;5.22;3.00;;;;;;;;;;5134687;27;20542;-63
2021/06/06 12:14:15;;;;;;;5.20;3.10;;;;;;;;;;5134523;27;20026;-64
2021/06/06 12:16:46;;;;;;;4.30;3.00;;;;;;;;;;5134422;27;20685;-63
2021/06/06 12:19:14;;;;;;;5.40;3.10;;;;;;;;;;5134537;27;20038;-63
2021/06/06 12:21:41;;;;;;;5.88;3.22;;;;;;;;;;5116170;27;20072;-63
2021/06/06 12:24:28;;;;;;;4.15;2.67;;;;;;;;;;5134489;27;20541;-64
2021/06/06 12:26:55;;;;;;;4.32;2.95;;;;;;;;;;5134541;27;20156;-63
2021/06/06 12:29:25;;;;;;;7.18;3.20;;;;;;;;;;5134419;27;20474;-62
2021/06/06 12:31:51;;;;;;;4.18;2.85;;;;;;;;;;5134348;27;20053;-64
2021/06/06 12:34:17;;;;;;;5.85;3.17;;;;;;;;;;5115855;27;20011;-63
2021/06/06 12:36:44;;;;;;;4.60;2.55;;;;;;;;;;5134414;27;20039;-64
2021/06/06 12:39:11;;;;;;;5.85;3.13;;;;;;;;;;5115960;27;20068;-63
2021/06/06 12:41:42;;;;;;;4.82;2.72;;;;;;;;;;5134080;27;20054;-63
2021/06/06 12:44:09;;;;;;;3.88;2.53;;;;;;;;;;5133967;27;20771;-64
2021/06/06 12:46:54;;;;;;;4.55;2.97;;;;;;;;;;5134008;27;20034;-63
2021/06/06 12:49:31;;;;;;;4.85;2.90;;;;;;;;;;5134051;27;20068;-64
2021/06/06 12:51:58;;;;;;;4.90;3.00;;;;;;;;;;5133977;27;20026;-63
2021/06/06 12:54:31;;;;;;;4.57;2.85;;;;;;;;;;5134085;27;20022;-63
2021/06/06 12:57:06;;;;;;;4.47;2.67;;;;;;;;;;5133719;27;20097;-63
2021/06/06 12:59:33;;;;;;;4.05;2.80;;;;;;;;;;5133551;27;20028;-63
2021/06/06 13:02:10;;;;;;;4.40;3.00;;;;;;;;;;5133646;27;20023;-63
2021/06/06 13:04:36;;;;;;;3.92;2.50;;;;;;;;;;5133753;27;20474;-63
2021/06/06 13:07:03;;;;;;;3.72;2.55;;;;;;;;;;5133575;27;20514;-64
2021/06/06 13:09:30;;;;;;;5.07;3.00;;;;;;;;;;5133499;27;20027;-63
2021/06/06 13:12:13;;;;;;;6.57;2.63;;;;;;;;;;5133535;27;20080;-63
2021/06/06 13:14:53;;;;;;;4.15;2.63;;;;;;;;;;5133680;27;20020;-63
2021/06/06 13:17:39;;;;;;;4.10;2.47;;;;;;;;;;5133285;27;20113;-64
2021/06/06 13:20:23;;;;;;;5.88;2.83;;;;;;;;;;5133470;27;20102;-64
2021/06/06 13:23:04;;;;;;;3.90;2.58;;;;;;;;;;5133493;27;20023;-63
2021/06/06 13:25:35;;;;;;;3.83;2.45;;;;;;;;;;5132628;27;20039;-63
2021/06/06 13:28:12;;;;;;;4.15;2.67;;;;;;;;;;5114557;27;20027;-63
2021/06/06 13:30:40;;;;;;;4.38;2.70;;;;;;;;;;5133148;27;20019;-63
2021/06/06 13:33:09;;;;;;;5.10;2.40;;;;;;;;;;5133376;27;20019;-63
2021/06/06 13:35:35;;;;;;;3.65;2.40;;;;;;;;;;5133160;27;20478;-63
2021/06/06 13:38:01;;;;;;;4.43;2.80;;;;;;;;;;5133041;27;20072;-64
2021/06/06 13:40:32;;;;;;;4.90;3.00;;;;;;;;;;5133003;27;20122;-63
2021/06/06 13:42:59;;;;;;;4.07;2.50;;;;;;;;;;5132955;27;20023;-63
2021/06/06 13:45:27;;;;;;;3.78;2.40;;;;;;;;;;5132821;27;20054;-64
2021/06/06 13:47:54;;;;;;;3.90;2.50;;;;;;;;;;5114489;27;20020;-64
2021/06/06 13:50:21;;;;;;;3.53;2.30;;;;;;;;;;5133321;27;20046;-63
2021/06/06 13:52:47;;;;;;;3.85;2.45;;;;;;;;;;5132830;27;20015;-63
2021/06/06 13:55:18;;;;;;;4.80;2.80;;;;;;;;;;5132852;27;20452;-64
2021/06/06 13:57:45;;;;;;;4.10;2.53;;;;;;;;;;5132805;27;20059;-63
2021/06/06 14:00:13;;;;;;;3.88;2.50;;;;;;;;;;5132624;27;20015;-64
2021/06/06 14:02:42;;;;;;;3.75;2.40;;;;;;;;;;5132752;27;20031;-63
2021/06/06 14:05:09;;;;;;;4.22;2.65;;;;;;;;;;5132616;27;20035;-64
2021/06/06 14:07:35;;;;;;;4.65;2.53;;;;;;;;;;5132607;27;20090;-64
2021/06/06 14:10:01;;;;;;;4.78;2.55;;;;;;;;;;5132468;27;20029;-64
2021/06/06 14:12:27;;;;;;;4.80;2.75;;;;;;;;;;5132578;27;20103;-63
2021/06/06 14:14:53;;;;;;;3.63;2.30;;;;;;;;;;5132640;27;20049;-64
2021/06/06 14:17:19;;;;;;;5.68;2.55;;;;;;;;;;5132253;27;20030;-64
2021/06/06 14:19:45;;;;;;;3.97;2.40;;;;;;;;;;5132521;27;20023;-63
2021/06/06 14:22:11;;;;;;;4.30;1.92;;;;;;;;;;5132382;27;20027;-64
2021/06/06 14:24:38;;;;;;;4.53;2.22;;;;;;;;;;5113696;27;20031;-63
2021/06/06 14:27:06;;;;;;;4.05;2.53;;;;;;;;;;5132322;27;20019;-63
2021/06/06 14:29:33;;;;;;;3.55;2.15;;;;;;;;;;5132337;27;20025;-64
2021/06/06 14:31:59;;;;;;;4.43;2.38;;;;;;;;;;5132222;28;20465;-63
2021/06/06 14:34:25;;;;;;;3.65;1.80;;;;;;;;;;5132311;28;20016;-63
2021/06/06 14:36:51;;;;;;;4.72;2.20;;;;;;;;;;5133977;27;20023;-63
2021/06/06 14:39:18;;;;;;;4.25;2.03;;;;;;;;;;5136711;27;20027;-63
2021/06/06 14:41:46;;;;;;;3.97;2.30;;;;;;;;;;5136360;27;20047;-64
2021/06/06 14:44:13;;;;;;;3.72;2.13;;;;;;;;;;5136369;27;20035;-63
2021/06/06 14:46:39;;;;;;;3.78;2.25;;;;;;;;;;5136356;27;20474;-65
2021/06/06 14:49:05;;;;;;;4.18;2.22;;;;;;;;;;5136323;27;20031;-64
2021/06/06 14:51:33;;;;;;;4.28;2.13;;;;;;;;;;5136352;27;20019;-65
2021/06/06 14:54:00;;;;;;;4.35;2.28;;;;;;;;;;5136344;27;20373;-65
2021/06/06 14:56:26;;;;;;;3.88;2.28;;;;;;;;;;5136430;27;20094;-64